createdAt,value
2022-10-11T00:00:41.202Z,16.30
2022-10-11T00:03:09.539Z,10.00
2022-10-11T00:05:37.864Z,17.17
2022-10-11T00:08:06.571Z,13.23
2022-10-11T00:10:35.357Z,7.60
2022-10-11T00:13:05.216Z,9.83
2022-10-11T00:15:34.176Z,16.60
2022-10-11T00:18:05.270Z,11.23
2022-10-11T00:20:33.505Z,10.87
2022-10-11T00:23:01.406Z,10.43
2022-10-11T00:25:29.433Z,16.30
2022-10-11T00:27:57.659Z,12.37
2022-10-11T00:30:27.067Z,13.63
2022-10-11T00:32:55.038Z,11.83
2022-10-11T00:35:23.000Z,9.83
2022-10-11T00:37:50.965Z,15.27
2022-10-11T00:40:21.064Z,13.43
2022-10-11T00:42:48.982Z,14.70
2022-10-11T00:45:59.364Z,13.97
2022-10-11T00:48:37.349Z,10.83
2022-10-11T00:51:11.305Z,13.23
2022-10-11T00:53:39.434Z,9.03
2022-10-11T00:56:11.161Z,10.83
2022-10-11T00:58:39.968Z,10.43
2022-10-11T01:01:08.502Z,12.93
2022-10-11T01:03:39.807Z,13.63
2022-10-11T01:06:08.413Z,13.87
2022-10-11T01:08:37.060Z,11.20
2022-10-11T01:11:05.284Z,10.23
2022-10-11T01:13:41.656Z,16.93
2022-10-11T01:16:16.481Z,15.30
2022-10-11T01:18:55.164Z,12.27
2022-10-11T01:21:36.769Z,13.10
2022-10-11T01:24:38.938Z,11.87
2022-10-11T01:27:31.398Z,16.53
2022-10-11T01:30:15.834Z,15.63
2022-10-11T01:32:51.599Z,16.40
2022-10-11T01:35:25.414Z,12.00
2022-10-11T01:38:00.751Z,10.23
2022-10-11T01:40:34.498Z,15.50
2022-10-11T01:43:04.603Z,11.53
2022-10-11T01:48:47.177Z,15.70
2022-10-11T01:51:16.110Z,16.73
2022-10-11T01:54:05.815Z,11.63
2022-10-11T01:56:59.836Z,9.73
2022-10-11T01:59:43.925Z,12.47
2022-10-11T02:02:28.014Z,13.20
2022-10-11T02:05:04.368Z,11.23
2022-10-11T02:07:41.248Z,9.63
2022-10-11T02:10:16.872Z,7.23
2022-10-11T02:12:50.085Z,9.60
2022-10-11T02:15:20.190Z,12.07
2022-10-11T02:17:52.208Z,16.40
2022-10-11T02:20:25.909Z,12.73
2022-10-11T02:23:00.789Z,9.17
2022-10-11T02:25:33.527Z,11.93
2022-10-11T02:28:05.367Z,9.97
2022-10-11T02:30:34.237Z,16.83
2022-10-11T02:33:04.835Z,14.73
2022-10-11T02:35:40.403Z,11.80
2022-10-11T02:38:17.528Z,10.37
2022-10-11T02:40:48.711Z,15.33
2022-10-11T02:43:24.864Z,14.40
2022-10-11T02:45:57.377Z,15.90
2022-10-11T02:48:27.506Z,16.47
2022-10-11T02:50:58.280Z,18.33
2022-10-11T02:53:27.860Z,14.00
2022-10-11T02:55:56.718Z,18.70
2022-10-11T02:58:25.334Z,14.00
2022-10-11T03:00:53.365Z,19.77
2022-10-11T03:03:21.547Z,23.77
2022-10-11T03:05:49.495Z,20.57
2022-10-11T03:08:19.054Z,15.97
2022-10-11T03:10:46.933Z,16.90
2022-10-11T03:13:18.109Z,17.23
2022-10-11T03:16:01.921Z,20.87
2022-10-11T03:18:31.221Z,22.93
2022-10-11T03:20:59.074Z,26.20
2022-10-11T03:23:28.388Z,26.07
2022-10-11T03:25:56.610Z,28.47
2022-10-11T03:28:24.561Z,29.63
2022-10-11T03:30:53.431Z,29.47
2022-10-11T03:33:21.314Z,28.33
2022-10-11T03:35:50.166Z,28.80
2022-10-11T03:38:20.701Z,33.83
2022-10-11T03:40:50.567Z,38.80
2022-10-11T03:43:19.133Z,32.20
2022-10-11T03:45:47.021Z,30.17
2022-10-11T03:48:15.000Z,31.40
2022-10-11T03:50:43.202Z,30.43
2022-10-11T03:53:11.111Z,33.37
2022-10-11T03:55:40.112Z,32.30
2022-10-11T03:58:09.975Z,37.53
2022-10-11T04:00:38.753Z,37.50
2022-10-11T04:03:06.699Z,34.90
2022-10-11T04:05:34.727Z,34.27
2022-10-11T04:08:02.645Z,35.53
2022-10-11T04:10:31.070Z,45.93
2022-10-11T04:12:59.140Z,32.77
2022-10-11T04:15:28.550Z,36.53
2022-10-11T04:17:56.451Z,40.87
2022-10-11T04:20:24.461Z,30.83
2022-10-11T04:22:52.553Z,36.57
2022-10-11T04:25:20.452Z,35.80
2022-10-11T04:27:48.623Z,35.13
2022-10-11T04:30:17.408Z,34.47
2022-10-11T04:32:46.694Z,35.77
2022-10-11T04:35:14.605Z,40.53
2022-10-11T04:37:42.551Z,29.77
2022-10-11T04:40:11.875Z,37.17
2022-10-11T04:42:39.750Z,35.77
2022-10-11T04:45:09.455Z,44.17
2022-10-11T04:47:38.035Z,33.37
2022-10-11T04:50:08.220Z,41.80
2022-10-11T04:52:36.591Z,37.17
2022-10-11T04:55:05.013Z,37.13
2022-10-11T04:57:32.910Z,33.13
2022-10-11T05:00:00.795Z,40.37
2022-10-11T05:02:28.743Z,39.83
2022-10-11T05:04:56.832Z,32.00
2022-10-11T05:07:26.110Z,32.07
2022-10-11T05:09:54.597Z,41.77
2022-10-11T05:12:22.647Z,37.30
2022-10-11T05:14:50.561Z,35.10
2022-10-11T05:17:18.451Z,44.93
2022-10-11T05:19:46.407Z,37.77
2022-10-11T05:22:14.306Z,31.73
2022-10-11T05:24:43.548Z,40.70
2022-10-11T05:27:11.516Z,41.17
2022-10-11T05:29:39.419Z,36.77
2022-10-11T05:32:07.325Z,43.13
2022-10-11T05:34:35.278Z,46.57
2022-10-11T05:37:03.167Z,39.53
2022-10-11T05:39:31.222Z,42.50
2022-10-11T05:42:00.663Z,44.00
2022-10-11T05:44:28.594Z,44.67
2022-10-11T05:46:56.457Z,39.10
2022-10-11T05:49:24.389Z,40.97
2022-10-11T05:51:52.288Z,41.23
2022-10-11T05:54:20.156Z,42.17
2022-10-11T05:56:48.488Z,40.77
2022-10-11T05:59:17.743Z,37.53
2022-10-11T06:01:45.717Z,37.83
2022-10-11T06:04:14.924Z,39.93
2022-10-11T06:06:42.916Z,32.37
2022-10-11T06:09:10.875Z,34.17
2022-10-11T06:11:41.286Z,34.03
2022-10-11T06:14:09.826Z,41.97
2022-10-11T06:16:39.357Z,36.83
2022-10-11T06:19:07.888Z,37.23
2022-10-11T06:21:36.401Z,38.60
2022-10-11T06:24:04.677Z,36.80
2022-10-11T06:26:32.665Z,35.50
2022-10-11T06:29:00.620Z,42.13
2022-10-11T06:31:28.544Z,35.83
2022-10-11T06:33:59.005Z,38.83
2022-10-11T06:36:27.132Z,39.63
2022-10-11T06:38:56.160Z,44.30
2022-10-11T06:41:26.410Z,33.70
2022-10-11T06:43:54.487Z,38.33
2022-10-11T06:46:24.783Z,40.30
2022-10-11T06:48:52.698Z,36.53
2022-10-11T06:51:23.666Z,32.03
2022-10-11T06:53:52.770Z,40.43
2022-10-11T06:56:20.744Z,36.57
2022-10-11T06:58:48.817Z,36.80
2022-10-11T07:01:20.083Z,32.93
2022-10-11T07:03:49.096Z,40.37
2022-10-11T07:06:19.655Z,29.73
2022-10-11T07:08:49.660Z,37.17
2022-10-11T07:11:18.851Z,38.17
2022-10-11T07:13:50.912Z,33.40
2022-10-11T07:16:20.067Z,43.30
2022-10-11T07:18:48.044Z,36.73
2022-10-11T07:21:17.148Z,37.13
2022-10-11T07:23:45.403Z,34.03
2022-10-11T07:26:14.695Z,40.40
2022-10-11T07:28:42.926Z,37.60
2022-10-11T07:31:13.954Z,37.73
2022-10-11T07:33:41.779Z,36.67
2022-10-11T07:36:10.916Z,38.20
2022-10-11T07:38:40.233Z,36.77
2022-10-11T07:41:09.329Z,39.33
2022-10-11T07:43:39.539Z,40.90
2022-10-11T07:46:08.281Z,37.47
2022-10-11T07:48:37.573Z,39.33
2022-10-11T07:51:07.261Z,37.47
2022-10-11T07:53:39.667Z,42.37
2022-10-11T07:56:08.891Z,34.73
2022-10-11T07:58:38.529Z,36.73
2022-10-11T08:01:07.244Z,38.80
2022-10-11T08:03:35.528Z,34.40
2022-10-11T08:06:05.852Z,40.27
2022-10-11T08:08:34.040Z,38.87
2022-10-11T08:11:02.008Z,42.47
2022-10-11T08:13:30.089Z,39.03
2022-10-11T08:15:59.373Z,40.07
2022-10-11T08:18:27.448Z,39.40
2022-10-11T08:20:55.292Z,35.33
2022-10-11T08:23:23.253Z,39.47
2022-10-11T08:25:51.186Z,36.10
2022-10-11T08:28:19.156Z,36.20
2022-10-11T08:30:50.191Z,39.07
2022-10-11T08:33:20.301Z,37.60
2022-10-11T08:35:48.843Z,40.53
2022-10-11T08:38:16.852Z,35.70
2022-10-11T08:40:48.284Z,37.93
2022-10-11T08:43:27.897Z,34.83
2022-10-11T08:45:59.186Z,33.00
2022-10-11T08:48:35.275Z,31.63
2022-10-11T08:51:08.134Z,33.30
2022-10-11T08:53:45.328Z,40.03
2022-10-11T08:56:15.071Z,35.60
2022-10-11T08:58:48.428Z,36.47
2022-10-11T09:01:21.699Z,39.93
2022-10-11T09:03:52.053Z,46.63
2022-10-11T09:06:37.775Z,43.83
2022-10-11T09:09:22.383Z,36.83
2022-10-11T09:12:02.044Z,45.63
2022-10-11T09:14:52.269Z,43.07
2022-10-11T09:17:37.353Z,38.63
2022-10-11T09:20:32.907Z,31.97
2022-10-11T09:23:05.792Z,38.23
2022-10-11T09:25:36.439Z,39.83
2022-10-11T09:28:16.344Z,36.90
2022-10-11T09:30:49.569Z,41.10
2022-10-11T09:33:23.905Z,40.27
2022-10-11T09:35:53.813Z,31.63
2022-10-11T09:38:39.819Z,36.97
2022-10-11T09:41:16.245Z,36.17
2022-10-11T09:43:48.600Z,33.53
2022-10-11T09:46:23.007Z,34.40
2022-10-11T09:48:54.489Z,35.13
2022-10-11T09:51:27.013Z,33.10
2022-10-11T09:53:58.272Z,34.13
2022-10-11T09:56:28.708Z,38.33
2022-10-11T09:59:17.108Z,41.70
2022-10-11T10:01:45.509Z,39.60
2022-10-11T10:04:16.906Z,40.00
2022-10-11T10:06:46.497Z,44.13
2022-10-11T10:09:26.015Z,36.00
2022-10-11T10:11:54.479Z,44.00
2022-10-11T10:14:25.708Z,33.53
2022-10-11T10:17:06.869Z,27.27
2022-10-11T10:19:44.966Z,41.37
2022-10-11T10:22:20.207Z,38.30
2022-10-11T10:24:50.350Z,30.17
2022-10-11T10:27:22.127Z,34.77
2022-10-11T10:30:17.135Z,34.37
2022-10-11T10:32:52.227Z,35.87
2022-10-11T10:35:31.602Z,34.17
2022-10-11T10:38:09.818Z,39.40
2022-10-11T10:40:43.789Z,41.47
2022-10-11T10:43:17.401Z,35.00
2022-10-11T10:46:10.654Z,37.40
2022-10-11T10:51:44.309Z,33.10
2022-10-11T10:54:25.486Z,31.17
2022-10-11T10:56:56.445Z,36.37
2022-10-11T10:59:43.929Z,35.37
2022-10-11T11:02:39.002Z,30.70
2022-10-11T11:05:18.766Z,41.67
2022-10-11T11:07:52.711Z,29.97
2022-10-11T11:10:25.551Z,32.10
2022-10-11T11:13:07.400Z,32.27
2022-10-11T11:15:40.224Z,35.73
2022-10-11T11:18:22.593Z,31.00
2022-10-11T11:21:06.288Z,39.70
2022-10-11T11:23:41.787Z,33.77
2022-10-11T11:26:19.596Z,30.07
2022-10-11T11:28:58.972Z,26.93
2022-10-11T11:31:45.509Z,22.40
2022-10-11T11:34:21.713Z,28.90
2022-10-11T11:36:55.880Z,31.63
2022-10-11T11:39:26.975Z,37.77
2022-10-11T11:42:00.942Z,29.57
2022-10-11T11:44:32.280Z,36.60
2022-10-11T11:47:04.642Z,25.03
2022-10-11T11:49:37.034Z,27.73
2022-10-11T11:52:06.757Z,30.20
2022-10-11T11:54:45.637Z,22.50
2022-10-11T11:57:25.402Z,28.67
2022-10-11T12:00:00.477Z,26.13
2022-10-11T12:02:42.473Z,29.90
2022-10-11T12:05:12.572Z,31.60
2022-10-11T12:07:54.039Z,27.67
2022-10-11T12:10:29.068Z,25.43
2022-10-11T12:13:09.708Z,24.23
2022-10-11T12:15:38.841Z,26.00
2022-10-11T12:18:16.252Z,26.63
2022-10-11T12:20:45.364Z,28.13
2022-10-11T12:23:41.948Z,30.10
2022-10-11T12:26:39.021Z,27.23
2022-10-11T12:29:28.720Z,26.60
2022-10-11T12:32:48.063Z,29.00
2022-10-11T12:36:04.003Z,24.43
2022-10-11T12:38:37.884Z,26.20
2022-10-11T12:41:50.342Z,23.97
2022-10-11T12:44:26.302Z,26.57
2022-10-11T12:47:26.212Z,28.17
2022-10-11T12:50:08.880Z,27.97
2022-10-11T12:52:42.960Z,26.07
2022-10-11T12:55:26.587Z,32.23
2022-10-11T12:58:25.535Z,27.50
2022-10-11T13:01:18.702Z,27.80
2022-10-11T13:03:52.995Z,30.57
2022-10-11T13:06:24.906Z,29.00
2022-10-11T13:08:57.050Z,25.43
2022-10-11T13:11:30.912Z,26.43
2022-10-11T13:14:01.674Z,26.73
2022-10-11T13:16:46.623Z,26.03
2022-10-11T13:19:15.711Z,28.13
2022-10-11T13:21:44.319Z,29.07
2022-10-11T13:24:15.916Z,27.17
2022-10-11T13:26:45.477Z,25.43
2022-10-11T13:29:18.087Z,25.13
2022-10-11T13:31:49.231Z,21.27
2022-10-11T13:34:22.352Z,22.03
2022-10-11T13:36:56.516Z,24.43
2022-10-11T13:39:31.221Z,25.20
2022-10-11T13:42:00.963Z,25.40
2022-10-11T13:44:29.226Z,19.03
2022-10-11T13:46:58.759Z,18.77
2022-10-11T13:49:31.737Z,22.37
2022-10-11T13:52:00.926Z,19.17
2022-10-11T13:55:09.134Z,17.93
2022-10-11T13:57:40.308Z,23.20
2022-10-11T14:00:23.680Z,20.77
2022-10-11T14:02:58.016Z,17.83
2022-10-11T14:05:31.435Z,16.53
2022-10-11T14:08:01.901Z,17.47
2022-10-11T14:10:30.244Z,20.27
2022-10-11T14:13:23.162Z,22.73
2022-10-11T14:16:01.147Z,29.27
2022-10-11T14:18:42.358Z,17.73
2022-10-11T14:21:27.741Z,21.80
2022-10-11T14:23:57.360Z,20.87
2022-10-11T14:26:26.876Z,19.20
2022-10-11T14:28:59.005Z,19.97
2022-10-11T14:31:30.745Z,19.57
2022-10-11T14:34:00.291Z,22.77
2022-10-11T14:36:28.263Z,20.73
2022-10-11T14:38:56.356Z,26.83
2022-10-11T14:41:25.013Z,21.93
2022-10-11T14:43:56.287Z,22.07
2022-10-11T14:46:26.078Z,21.60
2022-10-11T14:48:56.314Z,21.47
2022-10-11T14:51:28.657Z,18.40
2022-10-11T14:53:56.556Z,19.60
2022-10-11T14:56:24.477Z,22.93
2022-10-11T14:58:52.427Z,23.43
2022-10-11T15:01:20.364Z,23.77
2022-10-11T15:03:48.268Z,24.27
2022-10-11T15:06:21.642Z,20.03
2022-10-11T15:08:51.513Z,22.50
2022-10-11T15:11:21.072Z,18.57
2022-10-11T15:13:49.854Z,30.20
2022-10-11T15:16:20.852Z,26.73
2022-10-11T15:18:50.926Z,28.83
2022-10-11T15:21:20.507Z,24.13
2022-10-11T15:23:51.781Z,26.33
2022-10-11T15:26:22.023Z,19.97
2022-10-11T15:28:51.113Z,19.90
2022-10-11T15:31:19.727Z,21.20
2022-10-11T15:33:48.140Z,21.70
2022-10-11T15:36:20.095Z,20.13
2022-10-11T15:38:50.436Z,20.73
2022-10-11T15:41:20.376Z,21.10
2022-10-11T15:43:50.167Z,19.47
2022-10-11T15:46:22.081Z,25.17
2022-10-11T15:48:50.687Z,22.70
2022-10-11T15:51:18.810Z,21.77
2022-10-11T15:53:46.726Z,25.00
2022-10-11T15:56:19.621Z,22.37
2022-10-11T15:58:47.543Z,21.87
2022-10-11T16:01:18.612Z,23.03
2022-10-11T16:03:48.228Z,21.90
2022-10-11T16:06:16.417Z,30.07
2022-10-11T16:08:45.023Z,23.80
2022-10-11T16:11:13.666Z,25.67
2022-10-11T16:13:42.960Z,25.70
2022-10-11T16:16:12.465Z,21.07
2022-10-11T16:18:40.488Z,24.50
2022-10-11T16:21:10.318Z,24.87
2022-10-11T16:23:38.748Z,27.37
2022-10-11T16:26:10.125Z,24.53
2022-10-11T16:28:38.662Z,23.17
2022-10-11T16:31:14.304Z,21.90
2022-10-11T16:33:46.479Z,27.83
2022-10-11T16:36:36.679Z,25.93
2022-10-11T16:39:07.904Z,21.50
2022-10-11T16:41:35.958Z,22.80
2022-10-11T16:44:04.430Z,27.60
2022-10-11T16:46:34.579Z,23.60
2022-10-11T16:49:02.593Z,27.83
2022-10-11T16:51:30.710Z,24.60
2022-10-11T16:53:58.862Z,25.23
2022-10-11T16:56:27.581Z,20.40
2022-10-11T16:58:56.080Z,24.23
2022-10-11T17:01:24.156Z,20.13
2022-10-11T17:03:53.855Z,25.00
2022-10-11T17:06:21.823Z,28.53
2022-10-11T17:08:49.966Z,26.50
2022-10-11T17:11:18.646Z,28.63
2022-10-11T17:13:46.909Z,28.10
2022-10-11T17:16:15.203Z,25.83
2022-10-11T17:18:43.283Z,22.30
2022-10-11T17:21:15.678Z,20.97
2022-10-11T17:23:43.871Z,26.50
2022-10-11T17:26:15.406Z,25.83
2022-10-11T17:28:43.535Z,28.07
2022-10-11T17:31:11.967Z,25.70
2022-10-11T17:33:40.281Z,28.40
2022-10-11T17:36:22.424Z,25.00
2022-10-11T17:38:51.880Z,26.53
2022-10-11T17:41:20.659Z,28.87
2022-10-11T17:43:48.718Z,23.73
2022-10-11T17:46:17.879Z,26.07
2022-10-11T17:48:45.946Z,28.07
2022-10-11T17:51:15.419Z,24.73
2022-10-11T17:53:45.251Z,22.40
2022-10-11T17:56:14.599Z,24.10
2022-10-11T17:58:42.938Z,18.20
2022-10-11T18:01:13.352Z,20.60
2022-10-11T18:03:41.432Z,25.90
2022-10-11T18:06:12.008Z,31.57
2022-10-11T18:08:41.711Z,30.30
2022-10-11T18:11:16.214Z,30.60
2022-10-11T18:13:46.467Z,27.67
2022-10-11T18:16:15.377Z,31.73
2022-10-11T18:18:44.185Z,27.40
2022-10-11T18:21:12.863Z,22.70
2022-10-11T18:23:41.035Z,33.03
2022-10-11T18:26:15.055Z,28.60
2022-10-11T18:28:43.510Z,24.83
2022-10-11T18:31:14.348Z,25.53
2022-10-11T18:33:45.458Z,26.37
2022-10-11T18:36:14.576Z,25.93
2022-10-11T18:38:46.379Z,28.20
2022-10-11T18:41:17.400Z,28.23
2022-10-11T18:43:50.492Z,26.50
2022-10-11T18:46:18.983Z,25.10
2022-10-11T18:48:49.080Z,24.70
2022-10-11T18:51:19.332Z,24.60
2022-10-11T18:53:48.241Z,27.23
2022-10-11T18:56:20.601Z,25.87
2022-10-11T18:58:49.933Z,24.77
2022-10-11T19:01:20.403Z,29.00
2022-10-11T19:03:52.362Z,29.23
2022-10-11T19:06:22.143Z,23.90
2022-10-11T19:08:51.338Z,30.33
2022-10-11T19:11:22.205Z,27.90
2022-10-11T19:13:56.207Z,26.57
2022-10-11T19:16:24.247Z,32.83
2022-10-11T19:18:53.033Z,33.83
2022-10-11T19:21:21.190Z,24.30
2022-10-11T19:23:50.162Z,29.13
2022-10-11T19:26:22.386Z,27.53
2022-10-11T19:28:55.991Z,25.90
2022-10-11T19:31:24.256Z,28.40
2022-10-11T19:33:52.206Z,28.77
2022-10-11T19:36:20.171Z,25.03
2022-10-11T19:38:49.666Z,30.30
2022-10-11T19:41:19.673Z,28.70
2022-10-11T19:43:49.250Z,24.83
2022-10-11T19:46:32.378Z,28.17
2022-10-11T19:49:08.725Z,34.83
2022-10-11T19:51:38.157Z,30.37
2022-10-11T19:54:08.202Z,26.33
2022-10-11T19:56:36.818Z,24.43
2022-10-11T19:59:07.375Z,32.10
2022-10-11T20:01:36.711Z,28.03
2022-10-11T20:04:07.303Z,25.10
2022-10-11T20:06:38.771Z,24.17
2022-10-11T20:11:55.196Z,25.83
2022-10-11T20:14:24.606Z,36.20
2022-10-11T20:16:52.734Z,25.80
2022-10-11T20:19:24.851Z,26.13
2022-10-11T20:21:55.676Z,29.70
2022-10-11T20:24:23.566Z,22.60
2022-10-11T20:26:51.435Z,25.67
2022-10-11T20:29:19.351Z,27.10
2022-10-11T20:31:48.590Z,30.43
2022-10-11T20:34:16.474Z,30.80
2022-10-11T20:36:48.933Z,33.73
2022-10-11T20:39:17.826Z,30.50
2022-10-11T20:41:46.206Z,29.47
2022-10-11T20:44:16.019Z,32.40
2022-10-11T20:46:43.911Z,30.73
2022-10-11T20:49:13.538Z,35.57
2022-10-11T20:51:42.741Z,26.80
2022-10-11T20:54:11.773Z,33.37
2022-10-11T20:56:39.791Z,27.70
2022-10-11T20:59:07.767Z,30.40
2022-10-11T21:01:37.728Z,31.00
2022-10-11T21:04:07.489Z,28.83
2022-10-11T21:06:36.795Z,32.23
2022-10-11T21:09:05.026Z,28.23
2022-10-11T21:11:35.056Z,33.60
2022-10-11T21:14:04.923Z,26.90
2022-10-11T21:16:33.666Z,31.37
2022-10-11T21:19:02.794Z,28.43
2022-10-11T21:21:31.679Z,35.10
2022-10-11T21:24:03.155Z,29.63
2022-10-11T21:26:31.515Z,32.20
2022-10-11T21:29:00.221Z,32.17
2022-10-11T21:31:32.941Z,31.97
2022-10-11T21:34:02.038Z,33.20
2022-10-11T21:36:29.883Z,35.43
2022-10-11T21:38:57.802Z,29.97
2022-10-11T21:41:29.119Z,33.10
2022-10-11T21:43:57.214Z,29.00
2022-10-11T21:46:47.584Z,30.37
2022-10-11T21:49:15.272Z,30.60
2022-10-11T21:51:43.237Z,28.90
2022-10-11T21:54:11.135Z,42.00
2022-10-11T21:56:40.427Z,34.20
2022-10-11T21:59:11.278Z,29.50
2022-10-11T22:01:40.929Z,30.30
2022-10-11T22:04:08.996Z,32.33
2022-10-11T22:06:37.863Z,30.03
2022-10-11T22:09:06.499Z,28.87
2022-10-11T22:11:34.422Z,35.50
2022-10-11T22:14:04.058Z,31.03
2022-10-11T22:16:33.469Z,36.33
2022-10-11T22:19:01.334Z,36.17
2022-10-11T22:21:29.251Z,38.23
2022-10-11T22:23:57.546Z,32.60
2022-10-11T22:26:29.811Z,28.23
2022-10-11T22:28:58.222Z,25.37
2022-10-11T22:31:27.830Z,28.70
2022-10-11T22:33:56.267Z,33.07
2022-10-11T22:36:25.181Z,29.10
2022-10-11T22:38:54.554Z,33.53
2022-10-11T22:41:22.469Z,34.20
2022-10-11T22:43:50.987Z,32.33
2022-10-11T22:46:19.210Z,31.13
2022-10-11T22:48:49.056Z,35.60
2022-10-11T22:51:17.034Z,32.93
2022-10-11T22:53:45.058Z,32.93
2022-10-11T22:56:12.992Z,28.47
2022-10-11T22:58:40.847Z,28.93
2022-10-11T23:01:10.102Z,33.30
2022-10-11T23:03:38.164Z,30.00
2022-10-11T23:06:07.879Z,37.10
2022-10-11T23:08:35.758Z,28.07
2022-10-11T23:11:05.006Z,35.57
2022-10-11T23:13:32.895Z,42.30
2022-10-11T23:16:00.931Z,27.93
2022-10-11T23:18:28.931Z,26.47
2022-10-11T23:21:00.350Z,36.70
2022-10-11T23:23:29.695Z,35.90
2022-10-11T23:26:05.839Z,32.23
2022-10-11T23:28:34.104Z,29.13
2022-10-11T23:31:06.500Z,30.90
2022-10-11T23:33:34.490Z,31.70
2022-10-11T23:36:02.687Z,38.23
2022-10-11T23:38:32.541Z,32.97
2022-10-11T23:41:00.501Z,33.33
2022-10-11T23:43:28.628Z,30.93
2022-10-11T23:45:57.299Z,37.97
2022-10-11T23:48:25.281Z,29.37
2022-10-11T23:50:53.188Z,29.17
2022-10-11T23:53:21.068Z,43.43
2022-10-11T23:55:50.400Z,32.90
2022-10-11T23:58:18.277Z,29.10
